Time;durP1;ratioP1;P1;durP2;ratioP2;P2;SDS_P1;SDS_P2;PMS_P1;PMS_P2;Temp;Humidity;BMP_temperature;BMP_pressure;BME280_temperature;BME280_humidity;BME280_pressure;Samples;Min_cycle;Max_cycle;Signal;HPM_P1;HPM_P2
2022/12/14 00:00:11;;;;;;;36.70;23.13;;;;;;;-142.91;100.00;56616.03;4993931;28;20289;-64
2022/12/14 00:02:37;;;;;;;46.67;25.60;;;;;;;-142.91;100.00;56616.03;4993277;28;20639;-65
2022/12/14 00:05:04;;;;;;;45.05;26.42;;;;;;;-142.91;100.00;56616.03;4992409;28;20207;-63
2022/12/14 00:07:32;;;;;;;44.05;25.45;;;;;;;-142.91;100.00;56616.03;4992565;28;20257;-65
2022/12/14 00:09:59;;;;;;;42.47;24.87;;;;;;;-142.91;100.00;56616.03;4992216;28;20271;-64
2022/12/14 00:12:26;;;;;;;44.20;26.77;;;;;;;-142.91;100.00;56616.03;4993014;28;20266;-63
2022/12/14 00:14:53;;;;;;;46.40;25.42;;;;;;;-142.91;100.00;56616.03;4993545;28;20211;-64
2022/12/14 00:17:19;;;;;;;45.53;27.10;;;;;;;-142.91;100.00;56616.03;4993449;28;20215;-65
2022/12/14 00:19:46;;;;;;;45.73;26.50;;;;;;;-142.91;100.00;56616.03;4992390;28;20231;-63
2022/12/14 00:22:13;;;;;;;40.90;26.63;;;;;;;-142.91;100.00;56616.03;4993389;28;20227;-65
2022/12/14 00:24:41;;;;;;;51.07;27.33;;;;;;;-142.91;100.00;56616.03;4992897;28;20241;-64
2022/12/14 00:27:08;;;;;;;46.35;26.60;;;;;;;-142.91;100.00;56616.03;4993346;28;20215;-63
2022/12/14 00:29:34;;;;;;;37.50;24.53;;;;;;;-142.91;100.00;56616.03;4992398;28;20365;-67
2022/12/14 00:32:01;;;;;;;46.22;25.30;;;;;;;-142.91;100.00;56616.03;4992344;28;20693;-64
2022/12/14 00:34:28;;;;;;;45.33;25.27;;;;;;;-142.91;100.00;56616.03;4991966;28;20589;-65
2022/12/14 00:36:55;;;;;;;38.40;24.15;;;;;;;-142.91;100.00;56616.03;4992599;28;20676;-64
2022/12/14 00:39:21;;;;;;;39.83;24.77;;;;;;;-142.91;100.00;56616.03;4993868;28;20677;-64
2022/12/14 00:41:49;;;;;;;41.90;24.57;;;;;;;-142.91;100.00;56616.03;4992855;28;20242;-66
2022/12/14 00:44:16;;;;;;;44.43;24.97;;;;;;;-142.91;100.00;56616.03;4990171;28;20216;-65
2022/12/14 00:46:43;;;;;;;44.00;25.58;;;;;;;-142.91;100.00;56616.03;4992792;28;20386;-65
2022/12/14 00:49:10;;;;;;;19.07;13.30;;;;;;;-142.91;100.00;56616.03;4990087;28;20317;-63
2022/12/14 00:51:37;;;;;;;18.90;12.23;;;;;;;-142.91;100.00;56616.03;4992879;28;20212;-64
2022/12/14 00:54:04;;;;;;;14.13;11.03;;;;;;;-142.91;100.00;56616.03;4992112;28;20213;-66
2022/12/14 00:56:31;;;;;;;14.07;10.70;;;;;;;-142.91;100.00;56616.03;4991904;28;20293;-63
2022/12/14 00:58:59;;;;;;;14.20;10.57;;;;;;;-142.91;100.00;56616.03;4991631;28;20690;-63
2022/12/14 01:01:26;;;;;;;11.47;9.77;;;;;;;-142.91;100.00;56616.03;4993669;28;20212;-65
2022/12/14 01:04:15;;;;;;;12.37;10.13;;;;;;;-142.91;100.00;56616.03;4992579;28;20735;-64
2022/12/14 01:06:40;;;;;;;13.00;9.80;;;;;;;-142.91;100.00;56616.03;4990497;28;20665;-63
2022/12/14 01:09:06;;;;;;;12.57;10.20;;;;;;;-142.91;100.00;56616.03;4992041;28;20348;-63
2022/12/14 01:11:33;;;;;;;13.47;10.50;;;;;;;-142.91;100.00;56616.03;4992339;28;20204;-65
2022/12/14 01:14:01;;;;;;;12.73;10.30;;;;;;;-142.91;100.00;56616.03;4992525;28;20203;-65
2022/12/14 01:16:28;;;;;;;16.57;10.80;;;;;;;-142.91;100.00;56616.03;4992517;28;20203;-65
2022/12/14 01:18:55;;;;;;;15.23;11.83;;;;;;;-142.91;100.00;56616.03;4992359;28;20270;-64
2022/12/14 01:21:23;;;;;;;19.33;13.57;;;;;;;-142.91;100.00;56616.03;4991674;28;20567;-64
2022/12/14 01:23:53;;;;;;;18.53;12.87;;;;;;;-142.91;100.00;56616.03;4992616;28;20211;-65
2022/12/14 01:26:20;;;;;;;14.87;11.10;;;;;;;-142.91;100.00;56616.03;4991787;28;20305;-65
2022/12/14 01:28:50;;;;;;;11.17;10.00;;;;;;;-142.91;100.00;56616.03;4992804;28;20231;-63
2022/12/14 01:31:20;;;;;;;9.90;8.73;;;;;;;-142.91;100.00;56616.03;4991655;28;20223;-65
2022/12/14 01:33:47;;;;;;;8.00;7.03;;;;;;;-142.91;100.00;56616.03;4992017;28;20316;-64
2022/12/14 01:36:16;;;;;;;9.63;7.53;;;;;;;-142.91;100.00;56616.03;4990996;28;20215;-64
2022/12/14 01:38:43;;;;;;;12.90;8.33;;;;;;;-142.91;100.00;56616.03;4990804;28;20265;-63
2022/12/14 01:41:22;;;;;;;9.60;8.10;;;;;;;-142.91;100.00;56616.03;4990799;28;20215;-62
2022/12/14 01:43:51;;;;;;;9.30;8.30;;;;;;;-142.91;100.00;56616.03;4991429;28;20231;-63
2022/12/14 01:46:26;;;;;;;11.10;9.30;;;;;;;-142.91;100.00;56616.03;4991602;28;20253;-65
2022/12/14 01:48:58;;;;;;;11.47;7.73;;;;;;;-142.91;100.00;56616.03;4991443;28;20716;-64
2022/12/14 01:51:26;;;;;;;8.33;7.17;;;;;;;-142.91;100.00;56616.03;4991369;28;20260;-64
2022/12/14 01:53:55;;;;;;;11.37;8.97;;;;;;;-142.91;100.00;56616.03;4991653;28;21186;-63
2022/12/14 01:56:22;;;;;;;10.77;7.73;;;;;;;-142.91;100.00;56616.03;4991200;28;20227;-66
2022/12/14 01:58:49;;;;;;;9.13;8.00;;;;;;;-142.91;100.00;56616.03;4992757;28;20755;-65
2022/12/14 02:01:16;;;;;;;9.87;7.43;;;;;;;-142.91;100.00;56616.03;4990138;28;20325;-63
2022/12/14 02:03:48;;;;;;;9.23;8.33;;;;;;;-142.91;100.00;56616.03;4991163;28;20689;-64
2022/12/14 02:06:19;;;;;;;8.50;7.70;;;;;;;-142.91;100.00;56616.03;4990580;28;20253;-65
2022/12/14 02:08:50;;;;;;;7.80;7.03;;;;;;;-142.91;100.00;56616.03;4990770;28;20286;-64
2022/12/14 02:11:26;;;;;;;7.97;5.60;;;;;;;-142.91;100.00;56616.03;4991136;28;20618;-65
2022/12/14 02:13:53;;;;;;;9.37;7.73;;;;;;;-142.91;100.00;56616.03;4992333;28;20742;-68
2022/12/14 02:16:19;;;;;;;11.43;8.47;;;;;;;-142.91;100.00;56616.03;4993224;28;20204;-65
2022/12/14 02:18:47;;;;;;;9.93;7.77;;;;;;;-142.91;100.00;56616.03;4990162;28;20618;-66
2022/12/14 02:21:23;;;;;;;7.30;6.57;;;;;;;-142.91;100.00;56616.03;4989917;28;20512;-64
2022/12/14 02:24:33;;;;;;;9.33;7.50;;;;;;;-142.91;100.00;56616.03;4989390;28;20238;-64
2022/12/14 02:27:33;;;;;;;8.60;7.73;;;;;;;-142.91;100.00;56616.03;4990900;28;20615;-64
2022/12/14 02:30:06;;;;;;;8.93;7.93;;;;;;;-142.91;100.00;56616.03;4988884;28;20304;-64
2022/12/14 02:32:53;;;;;;;7.90;7.10;;;;;;;-142.91;100.00;56616.03;4991461;28;20235;-66
2022/12/14 02:35:33;;;;;;;8.33;7.47;;;;;;;-142.91;100.00;56616.03;4992298;28;20287;-65
2022/12/14 02:38:10;;;;;;;8.50;7.27;;;;;;;-142.91;100.00;56616.03;4990614;28;20770;-64
2022/12/14 02:40:44;;;;;;;9.30;7.80;;;;;;;-142.91;100.00;56616.03;4991223;28;20661;-63
2022/12/14 02:43:20;;;;;;;7.70;7.00;;;;;;;-142.91;100.00;56616.03;4991736;28;20296;-64
2022/12/14 02:45:53;;;;;;;6.47;5.57;;;;;;;-142.91;100.00;56616.03;4990264;28;20199;-63
2022/12/14 02:48:25;;;;;;;7.47;6.77;;;;;;;-142.91;100.00;56616.03;4992453;28;20404;-65
2022/12/14 02:50:58;;;;;;;7.13;6.30;;;;;;;-142.91;100.00;56616.03;4995218;28;20220;-65
2022/12/14 02:53:31;;;;;;;7.17;6.23;;;;;;;-142.91;100.00;56616.03;4994836;28;20265;-65
2022/12/14 02:56:03;;;;;;;6.03;5.30;;;;;;;-142.91;100.00;56616.03;4995095;28;20747;-65
2022/12/14 02:58:35;;;;;;;8.57;7.13;;;;;;;-142.91;100.00;56616.03;4994665;28;20200;-64
2022/12/14 03:01:05;;;;;;;6.73;6.13;;;;;;;-142.91;100.00;56616.03;4993058;28;20685;-64
2022/12/14 03:03:31;;;;;;;6.53;5.90;;;;;;;-142.91;100.00;56616.03;4994450;28;20673;-65
2022/12/14 03:06:01;;;;;;;6.80;6.37;;;;;;;-142.91;100.00;56616.03;4994155;28;20203;-64
2022/12/14 03:08:31;;;;;;;7.13;6.43;;;;;;;-142.91;100.00;56616.03;4994064;28;20215;-65
2022/12/14 03:11:01;;;;;;;6.32;5.82;;;;;;;-142.91;100.00;56616.03;4993884;28;20940;-64
2022/12/14 03:13:31;;;;;;;6.13;5.73;;;;;;;-142.91;100.00;56616.03;4995212;28;20691;-66
2022/12/14 03:16:05;;;;;;;7.13;6.43;;;;;;;-142.91;100.00;56616.03;4997043;28;20207;-65
2022/12/14 03:18:37;;;;;;;6.03;5.50;;;;;;;-142.91;100.00;56616.03;4994605;28;20207;-65
2022/12/14 03:21:08;;;;;;;7.83;7.20;;;;;;;-142.91;100.00;56616.03;4993437;28;20215;-64
2022/12/14 03:23:38;;;;;;;8.60;6.68;;;;;;;-142.91;100.00;56616.03;4994618;28;20199;-63
2022/12/14 03:26:11;;;;;;;7.83;7.03;;;;;;;-142.91;100.00;56616.03;4995102;28;20212;-64
2022/12/14 03:28:44;;;;;;;6.27;5.67;;;;;;;-142.91;100.00;56616.03;4994567;28;20200;-64
2022/12/14 03:31:16;;;;;;;6.78;6.05;;;;;;;-142.91;100.00;56616.03;4992567;28;20220;-65
2022/12/14 03:33:46;;;;;;;8.07;7.38;;;;;;;-142.91;100.00;56616.03;4994345;28;20231;-65
2022/12/14 03:36:19;;;;;;;8.73;7.87;;;;;;;-142.91;100.00;56616.03;4994095;28;21876;-65
2022/12/14 03:38:50;;;;;;;7.93;7.20;;;;;;;-142.91;100.00;56616.03;4994722;28;20282;-65
2022/12/14 03:41:28;;;;;;;8.00;6.70;;;;;;;-142.91;100.00;56616.03;4992746;28;20235;-65
2022/12/14 03:44:08;;;;;;;12.52;7.32;;;;;;;-142.91;100.00;56616.03;4994165;28;20242;-66
2022/12/14 03:46:41;;;;;;;9.07;7.40;;;;;;;-142.91;100.00;56616.03;4994182;28;20208;-65
2022/12/14 03:49:18;;;;;;;7.83;7.10;;;;;;;-142.91;100.00;56616.03;4993720;28;20227;-66
2022/12/14 03:51:57;;;;;;;6.60;5.60;;;;;;;-142.91;100.00;56616.03;4992916;28;20203;-65
2022/12/14 03:54:36;;;;;;;8.10;7.30;;;;;;;-142.91;100.00;56616.03;4989985;28;20273;-64
2022/12/14 03:57:09;;;;;;;7.40;6.70;;;;;;;-142.91;100.00;56616.03;4994228;28;20203;-65
2022/12/14 03:59:46;;;;;;;7.17;6.47;;;;;;;-142.91;100.00;56616.03;4994175;28;20527;-64
2022/12/14 04:02:18;;;;;;;6.33;5.80;;;;;;;-142.91;100.00;56616.03;4992802;28;20320;-65
2022/12/14 04:04:53;;;;;;;7.17;6.47;;;;;;;-142.91;100.00;56616.03;4993753;28;20650;-64
2022/12/14 04:07:26;;;;;;;7.43;6.77;;;;;;;-142.91;100.00;56616.03;4994782;28;20199;-65
2022/12/14 04:09:58;;;;;;;5.97;5.47;;;;;;;-142.91;100.00;56616.03;4993426;28;20293;-66
2022/12/14 04:21:09;;;;;;;6.17;5.63;;;;;;;-142.91;100.00;56616.03;4981336;28;20203;-66
2022/12/14 04:26:29;;;;;;;6.97;6.13;;;;;;;-142.91;100.00;56616.03;4992919;28;20207;-65
2022/12/14 04:31:49;;;;;;;7.20;6.00;;;;;;;-142.91;100.00;56616.03;4993314;28;20202;-67
2022/12/14 04:34:19;;;;;;;6.67;5.80;;;;;;;-142.91;100.00;56616.03;4993763;28;20232;-64
2022/12/14 04:36:54;;;;;;;10.07;6.80;;;;;;;-142.91;100.00;56616.03;4990501;28;20707;-65
2022/12/14 04:39:27;;;;;;;8.73;6.17;;;;;;;-142.91;100.00;56616.03;4993845;28;20215;-66
2022/12/14 04:41:58;;;;;;;6.63;5.83;;;;;;;-142.91;100.00;56616.03;4992420;28;20277;-65
2022/12/14 04:44:31;;;;;;;6.95;6.30;;;;;;;-142.91;100.00;56616.03;4992137;28;20236;-64
2022/12/14 04:47:00;;;;;;;7.43;6.73;;;;;;;-142.91;100.00;56616.03;4992798;28;20706;-66
2022/12/14 04:49:35;;;;;;;8.13;6.97;;;;;;;-142.91;100.00;56616.03;4992338;28;20282;-64
2022/12/14 04:52:08;;;;;;;7.17;6.53;;;;;;;-142.91;100.00;56616.03;4991500;28;20304;-64
2022/12/14 04:54:41;;;;;;;6.63;6.03;;;;;;;-142.91;100.00;56616.03;4992228;28;20199;-65
2022/12/14 04:57:16;;;;;;;7.00;6.33;;;;;;;-142.91;100.00;56616.03;4993626;28;20678;-65
2022/12/14 04:59:43;;;;;;;7.88;6.82;;;;;;;-142.91;100.00;56616.03;4992367;28;21130;-64
2022/12/14 05:02:19;;;;;;;19.17;7.63;;;;;;;-142.91;100.00;56616.03;4993116;28;20584;-65
2022/12/14 05:04:54;;;;;;;7.40;6.75;;;;;;;-142.91;100.00;56616.03;4991546;28;20273;-64
2022/12/14 05:07:34;;;;;;;7.13;6.47;;;;;;;-142.91;100.00;56616.03;4991977;28;20353;-65
2022/12/14 05:10:06;;;;;;;7.03;6.33;;;;;;;-142.91;100.00;56616.03;4992059;28;20729;-64
2022/12/14 05:12:40;;;;;;;6.27;5.87;;;;;;;-142.91;100.00;56616.03;4992474;28;21621;-65
2022/12/14 05:15:12;;;;;;;7.80;7.20;;;;;;;-142.91;100.00;56616.03;4998570;28;21193;-65
2022/12/14 05:17:40;;;;;;;10.52;7.65;;;;;;;-142.91;100.00;56616.03;4995857;28;20215;-65
2022/12/14 05:20:14;;;;;;;7.93;7.10;;;;;;;-142.91;100.00;56616.03;4992902;28;20716;-67
2022/12/14 05:22:43;;;;;;;9.30;8.40;;;;;;;-142.91;100.00;56616.03;4992190;28;20574;-64
2022/12/14 05:25:10;;;;;;;9.87;7.87;;;;;;;-142.91;100.00;56616.03;4991212;28;20215;-65
2022/12/14 05:27:36;;;;;;;8.23;7.53;;;;;;;-142.91;100.00;56616.03;4992091;28;20700;-65
2022/12/14 05:30:04;;;;;;;8.77;8.07;;;;;;;-142.91;100.00;56616.03;4992283;28;20254;-66
2022/12/14 05:32:32;;;;;;;9.30;8.23;;;;;;;-142.91;100.00;56616.03;4991597;28;22205;-64
2022/12/14 05:34:58;;;;;;;9.47;8.23;;;;;;;-142.91;100.00;56616.03;4990710;28;20293;-64
2022/12/14 05:37:25;;;;;;;9.60;7.80;;;;;;;-142.91;100.00;56616.03;4993069;28;20676;-66
2022/12/14 05:39:54;;;;;;;11.57;8.13;;;;;;;-142.91;100.00;56616.03;4984108;28;20203;-65
2022/12/14 05:42:21;;;;;;;9.23;8.23;;;;;;;-142.91;100.00;56616.03;4989121;28;20572;-67
2022/12/14 05:44:47;;;;;;;8.73;7.90;;;;;;;-142.91;100.00;56616.03;4992397;28;20211;-66
2022/12/14 05:47:15;;;;;;;9.55;8.10;;;;;;;-142.91;100.00;56616.03;4990224;28;20712;-64
2022/12/14 05:49:41;;;;;;;8.03;7.23;;;;;;;-142.91;100.00;56616.03;4992047;28;20255;-64
2022/12/14 05:52:08;;;;;;;10.57;8.82;;;;;;;-142.91;100.00;56616.03;4991134;28;20702;-64
2022/12/14 05:54:35;;;;;;;11.10;8.60;;;;;;;-142.91;100.00;56616.03;4990173;28;20207;-65
2022/12/14 05:57:04;;;;;;;9.33;8.50;;;;;;;-142.91;100.00;56616.03;4990394;28;20206;-64
2022/12/14 05:59:31;;;;;;;9.70;7.40;;;;;;;-142.91;100.00;56616.03;4989807;28;20760;-64
2022/12/14 06:01:58;;;;;;;10.67;7.90;;;;;;;-142.91;100.00;56616.03;4990781;28;20226;-64
2022/12/14 06:04:25;;;;;;;10.00;8.30;;;;;;;-142.91;100.00;56616.03;4991018;28;20210;-65
2022/12/14 06:06:52;;;;;;;10.43;8.73;;;;;;;-142.91;100.00;56616.03;4991049;28;20685;-64
2022/12/14 06:09:19;;;;;;;10.27;8.17;;;;;;;-142.91;100.00;56616.03;4990464;28;20242;-63
2022/12/14 06:11:48;;;;;;;8.63;7.83;;;;;;;-142.91;100.00;56616.03;4989807;28;20241;-64
2022/12/14 06:14:17;;;;;;;9.17;8.20;;;;;;;-142.91;100.00;56616.03;4990629;28;20882;-65
2022/12/14 06:16:45;;;;;;;12.33;8.93;;;;;;;-142.91;100.00;56616.03;4992808;28;20254;-65
2022/12/14 06:19:13;;;;;;;9.70;8.80;;;;;;;-142.91;100.00;56616.03;4992589;28;20257;-64
2022/12/14 06:21:42;;;;;;;11.53;8.83;;;;;;;-142.91;100.00;56616.03;4989685;28;20212;-63
2022/12/14 06:24:11;;;;;;;9.70;8.77;;;;;;;-142.91;100.00;56616.03;4993551;28;20199;-64
2022/12/14 06:26:39;;;;;;;11.70;9.63;;;;;;;-142.91;100.00;56616.03;4994877;28;22723;-65
2022/12/14 06:29:07;;;;;;;11.83;9.80;;;;;;;-142.91;100.00;56616.03;4995238;28;22019;-65
2022/12/14 06:31:37;;;;;;;11.03;9.87;;;;;;;-142.91;100.00;56616.03;4994531;28;20309;-65
2022/12/14 06:34:03;;;;;;;12.43;10.23;;;;;;;-142.91;100.00;56616.03;4995375;28;20672;-64
2022/12/14 06:36:32;;;;;;;13.60;12.30;;;;;;;-142.91;100.00;56616.03;4995566;28;20806;-64
2022/12/14 06:39:01;;;;;;;16.67;10.60;;;;;;;-142.91;100.00;56616.03;4994654;28;20200;-65
2022/12/14 06:41:28;;;;;;;14.47;11.80;;;;;;;-142.91;100.00;56616.03;4994119;28;20206;-64
2022/12/14 06:43:55;;;;;;;12.63;10.17;;;;;;;-142.91;100.00;56616.03;4995390;28;20277;-65
2022/12/14 06:46:24;;;;;;;13.07;11.67;;;;;;;-142.91;100.00;56616.03;4995025;28;20791;-66
2022/12/14 06:48:54;;;;;;;11.77;10.00;;;;;;;-142.91;100.00;56616.03;4995279;28;20227;-64
2022/12/14 06:51:22;;;;;;;18.30;13.73;;;;;;;-142.91;100.00;56616.03;4994771;28;20620;-65
2022/12/14 06:53:50;;;;;;;17.03;14.57;;;;;;;-142.91;100.00;56616.03;4994971;28;20261;-64
2022/12/14 06:56:18;;;;;;;15.13;10.77;;;;;;;-142.91;100.00;56616.03;4993930;28;20290;-67
2022/12/14 06:58:45;;;;;;;20.70;15.17;;;;;;;-142.91;100.00;56616.03;4994549;28;20235;-64
2022/12/14 07:01:14;;;;;;;18.87;13.90;;;;;;;-142.91;100.00;56616.03;4994869;28;20195;-66
2022/12/14 07:03:43;;;;;;;20.07;13.90;;;;;;;-142.91;100.00;56616.03;4993402;28;20207;-65
2022/12/14 07:06:11;;;;;;;16.67;14.03;;;;;;;-142.91;100.00;56616.03;4994440;28;20774;-66
2022/12/14 07:08:38;;;;;;;19.70;13.87;;;;;;;-142.91;100.00;56616.03;4995131;28;20666;-65
2022/12/14 07:11:07;;;;;;;18.30;14.73;;;;;;;-142.91;100.00;56616.03;4994986;28;20235;-64
2022/12/14 07:13:34;;;;;;;22.03;14.57;;;;;;;-142.91;100.00;56616.03;4994328;28;20270;-65
2022/12/14 07:16:01;;;;;;;22.97;14.90;;;;;;;-142.91;100.00;56616.03;4994959;28;20629;-66
2022/12/14 07:18:29;;;;;;;18.70;13.17;;;;;;;-142.91;100.00;56616.03;4995926;28;20661;-65
2022/12/14 07:20:57;;;;;;;16.67;12.27;;;;;;;-142.91;100.00;56616.03;4995769;28;20203;-65
2022/12/14 07:23:26;;;;;;;17.67;14.17;;;;;;;-142.91;100.00;56616.03;4995201;28;20239;-65
2022/12/14 07:25:53;;;;;;;21.70;16.27;;;;;;;-142.91;100.00;56616.03;4993954;28;20254;-65
2022/12/14 07:28:20;;;;;;;24.77;14.90;;;;;;;-142.91;100.00;56616.03;4993954;28;20219;-63
2022/12/14 07:30:47;;;;;;;17.50;14.47;;;;;;;-142.91;100.00;56616.03;4994145;28;20897;-65
2022/12/14 07:33:14;;;;;;;25.37;15.57;;;;;;;-142.91;100.00;56616.03;4993563;28;20227;-64
2022/12/14 07:35:40;;;;;;;22.13;16.43;;;;;;;-142.91;100.00;56616.03;4992715;28;20219;-65
2022/12/14 07:38:07;;;;;;;22.57;16.23;;;;;;;-142.91;100.00;56616.03;4994431;28;20266;-66
2022/12/14 07:40:35;;;;;;;13.03;10.87;;;;;;;-142.91;100.00;56616.03;4991042;28;20204;-64
2022/12/14 07:43:02;;;;;;;17.57;13.80;;;;;;;-142.91;100.00;56616.03;4991925;28;20762;-65
2022/12/14 07:45:29;;;;;;;17.37;11.80;;;;;;;-142.91;100.00;56616.03;4992157;28;20207;-65
2022/12/14 07:47:56;;;;;;;21.40;16.60;;;;;;;-142.91;100.00;56616.03;4991779;28;21148;-65
2022/12/14 07:50:22;;;;;;;23.43;17.53;;;;;;;-142.91;100.00;56616.03;4992314;28;20308;-64
2022/12/14 07:52:49;;;;;;;24.80;16.13;;;;;;;-142.91;100.00;56616.03;4991539;28;20294;-66
2022/12/14 07:55:16;;;;;;;25.23;15.93;;;;;;;-142.91;100.00;56616.03;4991986;28;20281;-65
2022/12/14 07:57:44;;;;;;;25.33;17.00;;;;;;;-142.91;100.00;56616.03;4991727;28;20195;-65
2022/12/14 08:00:12;;;;;;;23.23;16.53;;;;;;;-142.91;100.00;56616.03;4991113;28;20711;-65
2022/12/14 08:02:39;;;;;;;23.13;17.13;;;;;;;-142.91;100.00;56616.03;4991424;28;20204;-66
2022/12/14 08:05:06;;;;;;;23.17;16.03;;;;;;;-142.91;100.00;56616.03;4991086;28;20254;-64
2022/12/14 08:07:33;;;;;;;22.13;16.13;;;;;;;-142.91;100.00;56616.03;4993074;28;20208;-64
2022/12/14 08:10:00;;;;;;;21.40;16.27;;;;;;;-142.91;100.00;56616.03;4991119;28;20325;-63
2022/12/14 08:12:26;;;;;;;18.37;15.77;;;;;;;-142.91;100.00;56616.03;4991609;28;20717;-64
2022/12/14 08:14:54;;;;;;;27.20;15.67;;;;;;;-142.91;100.00;56616.03;4991756;28;20751;-66
2022/12/14 08:17:21;;;;;;;21.97;15.73;;;;;;;-142.91;100.00;56616.03;4992203;28;20260;-64
2022/12/14 08:19:48;;;;;;;19.13;14.60;;;;;;;-142.91;100.00;56616.03;4993231;28;20621;-65
2022/12/14 08:22:15;;;;;;;21.70;16.93;;;;;;;-142.91;100.00;56616.03;4992105;28;20212;-67
2022/12/14 08:24:41;;;;;;;23.50;16.70;;;;;;;-142.91;100.00;56616.03;4990294;28;20207;-64
2022/12/14 08:27:08;;;;;;;20.27;16.70;;;;;;;-142.91;100.00;56616.03;4991036;28;20211;-65
2022/12/14 08:29:35;;;;;;;20.47;15.80;;;;;;;-142.91;100.00;56616.03;4992429;28;20242;-66
2022/12/14 08:32:03;;;;;;;21.87;14.23;;;;;;;-142.91;100.00;56616.03;4992402;28;20301;-66
2022/12/14 08:34:30;;;;;;;18.70;13.63;;;;;;;-142.91;100.00;56616.03;4991695;28;20280;-65
2022/12/14 08:36:57;;;;;;;23.17;16.07;;;;;;;-142.91;100.00;56616.03;4992248;28;20331;-65
2022/12/14 08:39:24;;;;;;;24.40;16.10;;;;;;;-142.91;100.00;56616.03;4992111;28;20214;-65
2022/12/14 08:41:51;;;;;;;27.47;16.63;;;;;;;-142.91;100.00;56616.03;4991945;28;20262;-65
2022/12/14 08:44:18;;;;;;;20.73;16.00;;;;;;;-142.91;100.00;56616.03;4991800;28;20212;-64
2022/12/14 08:46:44;;;;;;;20.33;13.70;;;;;;;-142.91;100.00;56616.03;4991982;28;21747;-64
2022/12/14 08:49:12;;;;;;;20.13;14.77;;;;;;;-142.91;100.00;56616.03;4992868;28;20317;-64
2022/12/14 08:51:39;;;;;;;22.37;15.40;;;;;;;-142.91;100.00;56616.03;4992950;28;20259;-64
2022/12/14 08:54:06;;;;;;;19.80;16.70;;;;;;;-142.91;100.00;56616.03;4992420;28;20210;-65
2022/12/14 08:56:33;;;;;;;24.50;16.87;;;;;;;-142.91;100.00;56616.03;4992324;28;20199;-64
2022/12/14 08:59:00;;;;;;;26.33;18.42;;;;;;;-142.91;100.00;56616.03;4992633;28;20489;-65
2022/12/14 09:01:29;;;;;;;19.42;16.75;;;;;;;-142.91;100.00;56616.03;4993097;28;20200;-64
2022/12/14 09:03:56;;;;;;;21.17;13.87;;;;;;;-142.91;100.00;56616.03;4991492;28;20254;-65
2022/12/14 09:06:26;;;;;;;21.07;16.37;;;;;;;-142.91;100.00;56616.03;4991710;28;20976;-64
2022/12/14 09:08:54;;;;;;;18.87;14.73;;;;;;;-142.91;100.00;56616.03;4991808;28;20366;-64
2022/12/14 09:11:22;;;;;;;19.53;13.53;;;;;;;-142.91;100.00;56616.03;4991712;28;20232;-66
2022/12/14 09:13:48;;;;;;;21.70;14.80;;;;;;;-142.91;100.00;56616.03;4992680;28;20313;-64
2022/12/14 09:16:18;;;;;;;18.43;14.93;;;;;;;-142.91;100.00;56616.03;4991539;28;20212;-66
2022/12/14 09:18:46;;;;;;;25.00;15.43;;;;;;;-142.91;100.00;56616.03;4992819;28;20217;-64
2022/12/14 09:21:13;;;;;;;19.17;15.70;;;;;;;-142.91;100.00;56616.03;4993584;28;20633;-65
2022/12/14 09:23:42;;;;;;;22.10;15.83;;;;;;;-142.91;100.00;56616.03;4992654;28;20224;-65
2022/12/14 09:26:12;;;;;;;21.07;16.80;;;;;;;-142.91;100.00;56616.03;4991045;28;20212;-66
2022/12/14 09:28:40;;;;;;;22.93;15.87;;;;;;;-142.91;100.00;56616.03;4990714;28;20200;-66
2022/12/14 09:31:10;;;;;;;24.90;17.27;;;;;;;-142.91;100.00;56616.03;4992315;28;20231;-65
2022/12/14 09:33:37;;;;;;;21.53;16.93;;;;;;;-142.91;100.00;56616.03;4991250;28;20310;-64
2022/12/14 09:36:06;;;;;;;26.20;17.37;;;;;;;-142.91;100.00;56616.03;4991045;28;20215;-65
2022/12/14 09:38:34;;;;;;;22.17;16.30;;;;;;;-142.91;100.00;56616.03;4991324;28;21061;-65
2022/12/14 09:41:05;;;;;;;22.53;17.57;;;;;;;-142.91;100.00;56616.03;4991083;28;20204;-64
2022/12/14 09:43:43;;;;;;;21.23;16.67;;;;;;;-142.91;100.00;56616.03;4991917;28;20214;-62
2022/12/14 09:46:26;;;;;;;21.95;17.08;;;;;;;-142.91;100.00;56616.03;4992170;28;20245;-64
2022/12/14 09:48:54;;;;;;;15.07;12.10;;;;;;;-142.91;100.00;56616.03;4991458;28;20681;-65
2022/12/14 09:51:22;;;;;;;13.07;11.60;;;;;;;-142.91;100.00;56616.03;4990505;28;20753;-67
2022/12/14 09:53:55;;;;;;;13.67;12.07;;;;;;;-142.91;100.00;56616.03;4991652;28;20280;-62
2022/12/14 09:56:23;;;;;;;14.60;11.57;;;;;;;-142.91;100.00;56616.03;4991707;28;20207;-65
2022/12/14 09:58:55;;;;;;;15.63;12.77;;;;;;;-142.91;100.00;56616.03;4989469;28;20720;-64
2022/12/14 10:01:45;;;;;;;18.53;12.63;;;;;;;-142.91;100.00;56616.03;4991727;28;20979;-62
2022/12/14 10:04:19;;;;;;;20.57;13.13;;;;;;;-142.91;100.00;56616.03;4991061;28;20212;-63
2022/12/14 10:06:54;;;;;;;17.83;12.47;;;;;;;-142.91;100.00;56616.03;4991264;28;20262;-65
2022/12/14 10:09:29;;;;;;;15.40;10.63;;;;;;;-142.91;100.00;56616.03;4989976;28;20277;-65
2022/12/14 10:12:09;;;;;;;20.10;13.70;;;;;;;-142.91;100.00;56616.03;4991405;28;20219;-64
2022/12/14 10:14:53;;;;;;;22.33;13.97;;;;;;;-142.91;100.00;56616.03;4991469;28;20207;-65
2022/12/14 10:17:30;;;;;;;16.80;11.20;;;;;;;-142.91;100.00;56616.03;4990436;28;20215;-65
2022/12/14 10:20:03;;;;;;;14.00;12.50;;;;;;;-142.91;100.00;56616.03;4988876;28;20207;-65
2022/12/14 10:22:35;;;;;;;19.00;13.57;;;;;;;-142.91;100.00;56616.03;4990060;28;20314;-64
2022/12/14 10:25:12;;;;;;;17.07;13.30;;;;;;;-142.91;100.00;56616.03;4989571;28;20219;-65
2022/12/14 10:27:47;;;;;;;16.60;12.20;;;;;;;-142.91;100.00;56616.03;4989656;28;20265;-64
2022/12/14 10:30:17;;;;;;;15.20;11.80;;;;;;;-142.91;100.00;56616.03;4990001;28;20758;-63
2022/12/14 10:32:47;;;;;;;10.90;8.98;;;;;;;-142.91;100.00;56616.03;4989524;28;21108;-66
2022/12/14 10:35:17;;;;;;;13.97;10.03;;;;;;;-142.91;100.00;56616.03;4990643;28;20678;-65
2022/12/14 10:37:48;;;;;;;13.30;9.77;;;;;;;-142.91;100.00;56616.03;4989864;28;20865;-65
2022/12/14 10:40:25;;;;;;;11.13;8.93;;;;;;;-142.91;100.00;56616.03;4989068;28;20207;-64
2022/12/14 10:43:18;;;;;;;9.83;8.83;;;;;;;-142.91;100.00;56616.03;4989987;28;20238;-64
2022/12/14 10:45:51;;;;;;;9.13;8.23;;;;;;;-142.91;100.00;56616.03;4989849;28;20219;-65
2022/12/14 10:48:44;;;;;;;7.47;6.65;;;;;;;-142.91;100.00;56616.03;4990914;28;20693;-65
2022/12/14 10:51:16;;;;;;;11.63;8.60;;;;;;;-142.91;100.00;56616.03;4990889;28;20269;-65
2022/12/14 10:53:48;;;;;;;11.63;8.70;;;;;;;-142.91;100.00;56616.03;4991615;28;20208;-67
2022/12/14 10:56:20;;;;;;;8.90;7.93;;;;;;;-142.91;100.00;56616.03;4989756;28;20208;-64
2022/12/14 10:59:19;;;;;;;10.73;9.67;;;;;;;-142.91;100.00;56616.03;4990795;28;20204;-65
2022/12/14 11:01:48;;;;;;;8.87;8.07;;;;;;;-142.91;100.00;56616.03;4992004;28;20200;-63
2022/12/14 11:04:28;;;;;;;9.43;8.52;;;;;;;-142.91;100.00;56616.03;4990710;28;20250;-64
2022/12/14 11:06:55;;;;;;;11.13;9.43;;;;;;;-142.91;100.00;56616.03;4991650;28;20204;-63
2022/12/14 11:09:24;;;;;;;10.30;9.20;;;;;;;-142.91;100.00;56616.03;4990697;28;20656;-65
2022/12/14 11:11:58;;;;;;;10.77;9.43;;;;;;;-142.91;100.00;56616.03;4992502;28;20231;-64
2022/12/14 11:14:26;;;;;;;12.13;9.60;;;;;;;-142.91;100.00;56616.03;4992852;28;20538;-63
2022/12/14 11:16:53;;;;;;;13.13;9.53;;;;;;;-142.91;100.00;56616.03;4993831;28;20361;-64
2022/12/14 11:19:22;;;;;;;11.57;10.00;;;;;;;-142.91;100.00;56616.03;4992954;28;20211;-63
2022/12/14 11:21:51;;;;;;;10.20;9.07;;;;;;;-142.91;100.00;56616.03;4993899;28;20702;-67
2022/12/14 11:24:23;;;;;;;12.33;10.17;;;;;;;-142.91;100.00;56616.03;4993671;28;20208;-65
2022/12/14 11:26:52;;;;;;;14.23;10.47;;;;;;;-142.91;100.00;56616.03;4993201;28;20211;-64